Time;durP1;ratioP1;P1;durP2;ratioP2;P2;SDS_P1;SDS_P2;PMS_P1;PMS_P2;Temp;Humidity;BMP_temperature;BMP_pressure;BME280_temperature;BME280_humidity;BME280_pressure;Samples;Min_cycle;Max_cycle;Signal;HPM_P1;HPM_P2
2021/04/21 00:01:09;;;;;;;7.67;7.00;;;;;;;8.62;66.17;99605.77;1725437;81;21025;-95
2021/04/21 00:03:58;;;;;;;7.97;7.28;;;;;;;8.58;66.26;99604.00;1711654;81;21183;-95
2021/04/21 00:06:51;;;;;;;7.97;7.27;;;;;;;8.56;66.43;99609.20;1716118;81;21176;-96
2021/04/21 00:10:10;;;;;;;6.40;5.95;;;;;;;8.50;66.35;99613.45;1718199;80;21205;-96
2021/04/21 00:30:31;;;;;;;7.60;6.97;;;;;;;8.24;66.79;99618.52;1611350;84;21187;-96
2021/04/21 00:36:42;;;;;;;7.80;7.17;;;;;;;8.31;66.92;99616.74;1644221;85;20240;-96
2021/04/21 00:39:13;;;;;;;8.43;7.63;;;;;;;8.21;67.06;99632.97;1613803;86;21168;-95
2021/04/21 00:41:58;;;;;;;8.33;7.63;;;;;;;8.16;67.25;99624.27;1654870;83;21464;-94
2021/04/21 00:45:06;;;;;;;9.05;8.15;;;;;;;8.15;67.29;99629.24;1669536;82;21143;-95
2021/04/21 00:48:15;;;;;;;9.37;8.47;;;;;;;8.11;67.34;99628.50;1605235;86;21155;-95
2021/04/21 00:52:00;;;;;;;9.63;8.73;;;;;;;8.07;67.42;99632.03;1633005;86;21625;-96
2021/04/21 00:55:34;;;;;;;8.10;7.33;;;;;;;8.04;67.62;99627.09;1628165;86;21185;-96
2021/04/21 00:59:05;;;;;;;8.40;7.60;;;;;;;8.14;67.38;99628.13;1635350;87;21116;-96
2021/04/21 01:01:36;;;;;;;9.80;7.50;;;;;;;8.19;67.29;99633.19;1653869;84;21124;-94
2021/04/21 01:04:09;;;;;;;7.00;6.50;;;;;;;8.18;67.37;99637.35;1637256;86;21179;-95
2021/04/21 01:27:19;;;;;;;8.13;7.33;;;;;;;8.04;67.32;99623.62;1650209;83;21180;-90
2021/04/21 01:40:57;;;;;;;8.50;7.57;;;;;;;7.69;68.10;99629.59;1786247;79;23117;-95
2021/04/21 01:44:15;;;;;;;11.08;10.20;;;;;;;7.65;68.32;99644.25;1796508;77;28205;-96
2021/04/21 01:46:49;;;;;;;9.03;8.23;;;;;;;7.85;67.91;99639.14;1796650;78;21147;-96
2021/04/21 01:49:23;;;;;;;7.53;6.93;;;;;;;8.11;67.20;99641.25;1800714;78;21665;-94
2021/04/21 01:52:09;;;;;;;12.93;7.63;;;;;;;8.11;67.23;99641.77;1803359;78;21113;-93
2021/04/21 01:54:41;;;;;;;7.40;6.70;;;;;;;8.04;67.43;99647.51;1725401;82;21165;-94
2021/04/21 01:57:14;;;;;;;8.60;7.63;;;;;;;7.97;67.56;99649.59;1687013;82;21211;-96
2021/04/21 02:06:50;;;;;;;8.97;8.17;;;;;;;7.87;67.80;99654.88;1687080;83;21211;-96
2021/04/21 02:12:57;;;;;;;11.07;9.63;;;;;;;8.05;67.52;99650.50;1648023;83;21156;-96
2021/04/21 02:15:44;;;;;;;8.80;8.03;;;;;;;8.02;67.59;99640.24;1674069;83;21168;-95
2021/04/21 02:19:01;;;;;;;8.97;7.97;;;;;;;8.02;67.60;99643.71;1822982;77;23510;-94
2021/04/21 02:21:55;;;;;;;8.87;7.97;;;;;;;7.97;67.66;99652.25;1763917;80;21825;-94
2021/04/21 02:25:12;;;;;;;10.20;8.07;;;;;;;7.91;67.72;99653.02;1708513;80;21241;-95
2021/04/21 02:27:59;;;;;;;9.30;7.83;;;;;;;7.95;67.65;99643.66;1708941;82;21317;-96
2021/04/21 02:35:01;;;;;;;9.17;7.60;;;;;;;8.00;67.56;99653.70;1629540;83;21068;-94
2021/04/21 02:40:04;;;;;;;8.10;7.33;;;;;;;7.89;68.05;99649.73;1816891;77;22965;-96
2021/04/21 02:43:22;;;;;;;9.13;8.20;;;;;;;7.77;68.31;99651.20;1772113;80;22215;-95
2021/04/21 02:46:16;;;;;;;9.20;8.30;;;;;;;7.74;68.40;99664.35;1691559;80;21094;-96
2021/04/21 02:49:18;;;;;;;9.27;7.37;;;;;;;7.72;68.31;99662.88;1666959;84;21133;-93
2021/04/21 02:51:59;;;;;;;9.23;8.17;;;;;;;7.77;68.14;99669.78;1674418;84;21461;-95
2021/04/21 02:54:44;;;;;;;10.63;7.80;;;;;;;7.80;68.03;99660.95;1682114;84;21220;-95
2021/04/21 02:57:29;;;;;;;9.40;8.50;;;;;;;7.73;68.24;99662.70;1668636;81;21109;-93
2021/04/21 03:00:17;;;;;;;8.10;7.40;;;;;;;7.66;68.49;99667.09;1666986;84;21193;-95
2021/04/21 03:03:08;;;;;;;8.88;8.08;;;;;;;7.66;68.66;99676.89;1680472;84;21193;-92
2021/04/21 03:05:37;;;;;;;11.50;7.83;;;;;;;7.60;68.63;99677.12;1665765;84;21158;-94
2021/04/21 03:08:13;;;;;;;7.47;6.77;;;;;;;7.63;68.76;99678.58;1650585;83;21185;-96
2021/04/21 03:11:16;;;;;;;9.70;8.53;;;;;;;7.71;68.55;99676.66;1682476;84;21193;-94
2021/04/21 03:14:21;;;;;;;7.27;6.70;;;;;;;7.72;68.41;99675.66;1670062;84;21205;-91
2021/04/21 03:17:01;;;;;;;9.27;7.53;;;;;;;7.66;68.62;99675.05;1663147;84;21343;-94
2021/04/21 03:19:42;;;;;;;8.57;7.67;;;;;;;7.60;68.74;99681.92;1644953;85;21197;-94
2021/04/21 03:22:15;;;;;;;8.30;7.60;;;;;;;7.57;68.72;99687.61;1664809;82;21242;-93
2021/04/21 03:24:51;;;;;;;8.03;7.40;;;;;;;7.54;68.75;99689.30;1645765;84;21197;-93
2021/04/21 03:27:22;;;;;;;8.40;7.60;;;;;;;7.60;68.69;99691.72;1675704;84;21680;-93
2021/04/21 03:29:52;;;;;;;7.27;6.67;;;;;;;7.69;68.52;99695.10;1664907;84;21633;-94
2021/04/21 03:32:26;;;;;;;7.50;6.40;;;;;;;7.67;68.63;99691.30;1669793;83;21303;-93
2021/04/21 03:34:56;;;;;;;7.73;7.00;;;;;;;7.60;69.09;99697.02;1683354;81;21094;-92
2021/04/21 03:37:41;;;;;;;8.40;7.60;;;;;;;7.55;69.06;99704.22;1675780;83;21201;-94
2021/04/21 03:40:11;;;;;;;10.00;8.03;;;;;;;7.49;69.17;99705.44;1672777;84;21611;-91
2021/04/21 03:42:39;;;;;;;7.70;6.60;;;;;;;7.48;69.17;99713.06;1670787;84;21172;-92
2021/04/21 03:45:08;;;;;;;7.90;7.30;;;;;;;7.57;69.41;99712.81;1639705;84;21114;-95
2021/04/21 03:47:36;;;;;;;10.73;8.37;;;;;;;7.60;69.18;99705.79;1661208;84;21857;-94
2021/04/21 03:50:06;;;;;;;9.50;8.17;;;;;;;7.59;69.38;99715.25;1672330;84;21201;-94
2021/04/21 03:52:46;;;;;;;8.37;7.57;;;;;;;7.56;69.18;99715.12;1661482;84;21238;-94
2021/04/21 03:55:16;;;;;;;8.77;8.07;;;;;;;7.53;69.37;99719.46;1664606;83;21548;-94
2021/04/21 03:57:50;;;;;;;9.07;7.67;;;;;;;7.51;69.30;99716.69;1676538;84;21355;-93
2021/04/21 04:00:20;;;;;;;7.03;6.40;;;;;;;7.51;69.30;99725.45;1668661;84;21279;-95
2021/04/21 04:02:52;;;;;;;7.53;6.80;;;;;;;7.60;69.09;99724.87;1674865;84;21224;-94
2021/04/21 04:05:28;;;;;;;8.57;7.77;;;;;;;7.65;69.02;99728.28;1674391;84;21193;-93
2021/04/21 04:08:00;;;;;;;9.13;8.33;;;;;;;7.57;69.12;99733.18;1662770;84;21320;-94
2021/04/21 04:10:36;;;;;;;9.17;8.47;;;;;;;7.51;69.24;99734.73;1669576;84;21204;-94
2021/04/21 04:13:10;;;;;;;8.00;7.30;;;;;;;7.48;69.20;99741.75;1679125;81;21090;-93
2021/04/21 04:15:40;;;;;;;7.80;7.10;;;;;;;6.66;69.25;99620.68;1670476;84;21203;-93
2021/04/21 04:18:12;;;;;;;7.53;6.83;;;;;;;7.47;69.21;99741.92;1659796;84;21240;-93
2021/04/21 04:20:42;;;;;;;8.33;7.40;;;;;;;7.55;68.95;99744.48;1666634;84;21209;-92
2021/04/21 04:23:12;;;;;;;7.60;6.90;;;;;;;7.56;68.85;99741.65;1671994;83;21118;-93
2021/04/21 04:25:48;;;;;;;8.27;7.47;;;;;;;7.54;68.97;99756.92;1659270;84;21890;-93
2021/04/21 04:28:18;;;;;;;8.93;8.13;;;;;;;7.50;69.05;99759.63;1649767;84;21193;-92
2021/04/21 04:30:46;;;;;;;8.17;7.37;;;;;;;7.48;69.20;99759.47;1654306;84;21436;-90
2021/04/21 04:33:16;;;;;;;8.67;7.87;;;;;;;7.43;69.30;99766.66;1658602;80;21200;-88
2021/04/21 04:35:44;;;;;;;7.03;6.43;;;;;;;7.47;69.36;99767.13;1696695;83;21213;-88
2021/04/21 04:38:11;;;;;;;13.97;7.67;;;;;;;7.55;69.02;99764.37;1701928;83;21237;-88
2021/04/21 04:40:38;;;;;;;8.40;7.60;;;;;;;7.55;68.84;99763.89;1684424;83;21267;-86
2021/04/21 04:43:06;;;;;;;8.47;7.77;;;;;;;7.51;69.03;99770.54;1690546;83;21245;-88
2021/04/21 04:45:37;;;;;;;9.27;8.47;;;;;;;7.50;68.88;99768.91;1688177;80;21095;-86
2021/04/21 04:48:07;;;;;;;9.90;8.37;;;;;;;7.46;69.13;99768.11;1667936;84;21197;-87
2021/04/21 04:50:39;;;;;;;8.57;7.97;;;;;;;7.45;69.25;99765.16;1673328;84;21336;-87
2021/04/21 04:53:08;;;;;;;8.07;7.37;;;;;;;7.51;69.09;99767.07;1677874;84;21190;-88
2021/04/21 04:55:36;;;;;;;7.53;6.93;;;;;;;7.60;68.73;99774.75;1669503;84;21084;-89
2021/04/21 04:58:04;;;;;;;9.47;8.13;;;;;;;7.66;68.64;99775.84;1666655;84;21333;-88
2021/04/21 05:00:33;;;;;;;9.47;8.53;;;;;;;7.62;68.42;99770.59;1662099;82;21127;-89
2021/04/21 05:03:21;;;;;;;9.27;8.47;;;;;;;7.64;68.48;99773.89;1660052;84;21179;-88
2021/04/21 05:05:58;;;;;;;11.10;10.13;;;;;;;7.67;68.46;99769.55;1776849;79;23014;-87
2021/04/21 05:08:43;;;;;;;9.57;8.67;;;;;;;7.59;68.46;99769.62;1731729;82;21263;-85
2021/04/21 05:11:16;;;;;;;9.70;8.83;;;;;;;7.60;68.39;99764.14;1687488;82;21149;-88
2021/04/21 05:13:50;;;;;;;14.27;9.80;;;;;;;7.71;68.33;99767.36;1699704;83;22246;-87
2021/04/21 05:16:55;;;;;;;10.13;9.23;;;;;;;7.76;68.41;99776.89;1716243;82;21270;-87
2021/04/21 05:19:51;;;;;;;10.33;9.23;;;;;;;7.76;68.45;99779.55;1718516;82;21207;-87
2021/04/21 05:23:18;;;;;;;11.30;10.30;;;;;;;7.76;68.28;99778.22;1705635;82;21202;-86
2021/04/21 05:26:03;;;;;;;10.60;9.57;;;;;;;7.77;68.14;99787.84;1736938;80;21156;-86
2021/04/21 05:29:18;;;;;;;10.80;9.90;;;;;;;7.82;67.86;99792.58;1732180;82;21171;-86
2021/04/21 05:32:20;;;;;;;11.40;10.30;;;;;;;7.94;67.55;99800.41;1731696;82;21147;-87
2021/04/21 05:35:08;;;;;;;12.30;10.87;;;;;;;8.06;67.35;99801.61;1745775;80;21068;-86
2021/04/21 05:38:21;;;;;;;12.30;10.97;;;;;;;8.10;67.07;99806.02;1712917;82;21171;-87
2021/04/21 05:41:11;;;;;;;10.20;9.17;;;;;;;8.15;67.08;99811.59;1730986;80;21186;-86
2021/04/21 05:44:53;;;;;;;10.87;9.37;;;;;;;8.32;66.35;99809.04;1799638;78;22913;-85
2021/04/21 05:47:47;;;;;;;11.20;9.93;;;;;;;8.35;66.12;99813.17;1778669;79;21317;-87
2021/04/21 05:51:00;;;;;;;11.53;10.33;;;;;;;8.45;65.34;99789.00;1758965;79;21159;-85
2021/04/21 05:54:05;;;;;;;12.77;10.53;;;;;;;8.79;65.27;99819.39;1739677;81;21324;-86
2021/04/21 05:56:43;;;;;;;11.83;9.33;;;;;;;8.95;64.76;99819.15;1687225;83;21068;-89
2021/04/21 05:59:40;;;;;;;11.90;10.40;;;;;;;9.09;63.71;99825.39;1676333;82;21224;-90
2021/04/21 06:02:07;;;;;;;12.37;11.13;;;;;;;9.15;63.54;99820.16;1703261;82;22059;-90
2021/04/21 06:04:35;;;;;;;12.47;10.90;;;;;;;9.16;63.31;99816.46;1711678;82;21338;-89
2021/04/21 06:07:08;;;;;;;12.33;11.13;;;;;;;9.13;63.33;99819.49;1725601;82;21291;-88
2021/04/21 06:09:37;;;;;;;13.63;10.37;;;;;;;9.14;63.19;99826.98;1699956;82;21675;-89
2021/04/21 06:12:11;;;;;;;12.00;10.80;;;;;;;9.14;62.85;99824.33;1703909;82;21202;-89
2021/04/21 06:14:39;;;;;;;13.43;10.93;;;;;;;9.23;62.62;99826.32;1705598;82;21346;-90
2021/04/21 06:17:06;;;;;;;13.57;12.00;;;;;;;9.27;62.58;99831.08;1722280;82;21364;-89
2021/04/21 06:19:34;;;;;;;15.90;11.77;;;;;;;9.29;62.55;99837.55;1711328;82;21209;-94
2021/04/21 06:22:06;;;;;;;13.37;11.83;;;;;;;9.29;62.49;99829.56;1709536;82;21191;-91
2021/04/21 06:24:32;;;;;;;13.97;12.43;;;;;;;9.34;62.40;99832.45;1700086;82;21207;-91
2021/04/21 06:27:08;;;;;;;14.83;11.83;;;;;;;9.41;62.23;99832.52;1709248;82;21179;-91
2021/04/21 06:29:42;;;;;;;;;;;;;;;9.43;62.20;99830.48;1715140;82;21262;-92
2021/04/21 06:32:13;;;;;;;14.57;12.37;;;;;;;9.49;61.82;99839.02;1702554;82;20243;-94
2021/04/21 06:34:40;;;;;;;17.07;11.77;;;;;;;9.29;61.95;99810.95;1707175;82;21118;-90
2021/04/21 06:37:09;;;;;;;13.47;12.07;;;;;;;9.54;61.45;99838.75;1719058;82;21178;-86
2021/04/21 06:39:37;;;;;;;14.37;11.50;;;;;;;9.60;61.17;99836.34;1714585;82;21200;-86
2021/04/21 06:42:04;;;;;;;12.97;10.77;;;;;;;9.57;61.07;99837.55;1714884;82;21528;-84
2021/04/21 06:44:44;;;;;;;13.87;11.23;;;;;;;9.57;60.84;99842.03;1717368;82;21104;-81
2021/04/21 06:47:26;;;;;;;16.63;12.00;;;;;;;9.54;60.79;99844.58;1715123;82;21151;-75
2021/04/21 06:50:05;;;;;;;13.47;11.03;;;;;;;9.47;60.92;99835.20;1721972;82;21390;-74
2021/04/21 06:52:39;;;;;;;14.80;11.43;;;;;;;9.44;61.11;99838.27;1714048;82;21328;-73
2021/04/21 06:55:13;;;;;;;14.63;10.90;;;;;;;9.58;61.20;99843.69;1666201;82;21191;-74
2021/04/21 06:57:42;;;;;;;15.77;13.23;;;;;;;9.68;61.20;99848.15;1677815;83;21163;-74
2021/04/21 07:00:16;;;;;;;17.63;15.70;;;;;;;9.71;61.02;99859.23;1668745;82;21191;-74
2021/04/21 07:02:48;;;;;;;15.97;13.10;;;;;;;9.67;60.49;99858.50;1696363;82;21777;-73
2021/04/21 07:05:33;;;;;;;14.90;12.10;;;;;;;9.61;60.71;99857.95;1698572;82;21782;-73
2021/04/21 07:08:34;;;;;;;18.30;15.43;;;;;;;9.60;60.94;99857.63;1696781;82;21678;-73
2021/04/21 07:11:05;;;;;;;14.50;12.80;;;;;;;9.63;60.83;99862.56;1698771;82;21352;-71
2021/04/21 07:13:47;;;;;;;12.57;11.37;;;;;;;9.66;60.86;99863.49;1704117;82;21326;-74
2021/04/21 07:16:24;;;;;;;12.50;11.20;;;;;;;9.71;60.71;99869.88;1714130;81;21216;-75
2021/04/21 07:19:12;;;;;;;14.57;11.83;;;;;;;9.74;60.82;99866.02;1720971;81;21211;-73
2021/04/21 07:21:41;;;;;;;15.70;11.53;;;;;;;9.59;60.73;99832.02;1714060;82;21155;-74
2021/04/21 07:24:11;;;;;;;16.03;12.20;;;;;;;9.80;60.74;99855.92;1710826;82;21198;-74
2021/04/21 07:26:45;;;;;;;13.17;11.87;;;;;;;9.91;60.50;99857.23;1735155;81;21163;-74
2021/04/21 07:29:22;;;;;;;13.87;12.47;;;;;;;10.00;59.55;99864.04;1725977;81;21317;-74
2021/04/21 07:31:51;;;;;;;;;;;;;;;10.05;59.98;99859.44;1723318;81;21187;-75
2021/04/21 07:34:32;;;;;;;12.07;10.70;;;;;;;10.12;59.09;99858.98;1706989;81;20190;-76
2021/04/21 07:37:01;;;;;;;12.17;10.87;;;;;;;10.11;58.93;99863.97;1693365;82;21492;-75
2021/04/21 07:39:40;;;;;;;12.23;10.47;;;;;;;10.13;59.23;99870.77;1714594;83;21222;-74
2021/04/21 07:42:18;;;;;;;11.33;10.23;;;;;;;10.23;58.98;99878.39;1705776;83;21603;-74
2021/04/21 07:44:51;;;;;;;11.17;10.10;;;;;;;10.33;58.73;99878.87;1711086;81;21049;-74
2021/04/21 07:47:21;;;;;;;10.37;9.47;;;;;;;10.38;58.14;99886.28;1712975;81;21444;-74
2021/04/21 07:50:01;;;;;;;11.20;9.53;;;;;;;10.36;58.00;99883.00;1724521;81;21187;-79
2021/04/21 07:52:32;;;;;;;14.53;9.90;;;;;;;10.29;57.85;99889.58;1734505;81;21309;-86
2021/04/21 07:55:16;;;;;;;12.47;11.13;;;;;;;10.21;58.16;99887.58;1717574;81;21397;-83
2021/04/21 07:57:51;;;;;;;10.50;9.40;;;;;;;10.17;58.44;99888.52;1715638;81;21224;-85
2021/04/21 08:00:28;;;;;;;11.57;9.03;;;;;;;10.22;58.61;99887.39;1715170;81;21303;-85
2021/04/21 08:03:00;;;;;;;9.90;8.93;;;;;;;10.36;58.52;99891.48;1710690;81;21163;-85
2021/04/21 08:05:28;;;;;;;12.17;8.73;;;;;;;10.53;57.72;99890.14;1717816;81;21196;-82
2021/04/21 08:08:01;;;;;;;9.77;8.57;;;;;;;10.64;56.77;99895.39;1700521;83;21176;-83
2021/04/21 08:10:34;;;;;;;8.40;7.63;;;;;;;10.71;57.02;99899.72;1723178;81;21522;-85
2021/04/21 08:13:02;;;;;;;10.60;9.53;;;;;;;10.85;56.40;99899.27;1705854;80;22132;-82
2021/04/21 08:15:36;;;;;;;10.27;9.03;;;;;;;10.93;55.50;99896.94;1678146;84;21184;-81
2021/04/21 08:18:13;;;;;;;9.27;8.33;;;;;;;10.98;55.30;99902.49;1722894;83;21707;-84
2021/04/21 08:20:53;;;;;;;12.15;7.72;;;;;;;11.00;55.13;99907.11;1707835;83;21653;-82
2021/04/21 08:23:22;;;;;;;10.93;8.30;;;;;;;11.02;55.34;99900.22;1670177;83;21796;-82
2021/04/21 08:25:53;;;;;;;14.73;7.40;;;;;;;11.09;54.97;99906.39;1676215;84;21162;-80
2021/04/21 08:28:23;;;;;;;10.57;7.57;;;;;;;11.16;54.59;99891.23;1701284;83;21220;-84
2021/04/21 08:30:57;;;;;;;5.97;5.47;;;;;;;11.21;54.16;99901.30;1709693;82;21625;-83
2021/04/21 08:33:27;;;;;;;6.63;6.00;;;;;;;11.26;54.04;99901.00;1693204;84;21081;-84
2021/04/21 08:35:55;;;;;;;8.13;7.33;;;;;;;11.30;53.51;99894.23;1666355;84;21663;-88
2021/04/21 08:38:22;;;;;;;7.13;6.07;;;;;;;11.37;52.96;99896.89;1676494;84;21198;-85
2021/04/21 08:40:50;;;;;;;6.57;6.07;;;;;;;11.47;52.13;99901.33;1681748;84;21155;-82
2021/04/21 08:43:21;;;;;;;6.55;5.95;;;;;;;11.56;51.89;99895.25;1664648;84;21361;-82
2021/04/21 08:45:52;;;;;;;5.00;4.50;;;;;;;11.62;51.49;99897.12;1651079;84;21270;-83
2021/04/21 08:48:22;;;;;;;8.25;4.83;;;;;;;11.66;49.98;99888.19;1682485;83;21167;-86
2021/04/21 08:50:50;;;;;;;6.15;3.47;;;;;;;11.71;49.46;99895.05;1653122;85;21152;-85
2021/04/21 08:53:19;;;;;;;7.07;6.43;;;;;;;11.81;48.85;99894.62;1651859;84;21322;-82
2021/04/21 08:55:49;;;;;;;4.85;4.50;;;;;;;11.92;48.43;99886.00;1672570;83;21098;-83
2021/04/21 08:58:20;;;;;;;8.33;4.35;;;;;;;12.04;48.78;99887.02;1661070;85;21193;-84
2021/04/21 09:00:49;;;;;;;4.72;4.30;;;;;;;12.16;47.80;99880.52;1665415;84;21119;-83
2021/04/21 09:03:16;;;;;;;4.78;4.35;;;;;;;12.18;47.87;99881.64;1663386;84;21195;-82
2021/04/21 09:05:43;;;;;;;4.15;3.87;;;;;;;12.20;47.61;99880.39;1670149;84;21191;-82
2021/04/21 09:08:10;;;;;;;3.80;3.52;;;;;;;12.25;47.30;99892.61;1671844;84;21211;-82
2021/04/21 09:10:39;;;;;;;4.17;3.87;;;;;;;12.30;46.84;99883.98;1675658;84;21873;-83
2021/04/21 09:13:11;;;;;;;4.03;3.67;;;;;;;12.31;46.87;99897.63;1687944;83;21170;-83
2021/04/21 09:15:38;;;;;;;3.98;3.67;;;;;;;12.31;46.77;99892.81;1683528;83;21232;-84
2021/04/21 09:18:05;;;;;;;7.12;4.55;;;;;;;12.27;47.50;99891.89;1689863;83;21593;-81
2021/04/21 09:20:32;;;;;;;3.65;3.45;;;;;;;12.34;47.84;99895.05;1689819;83;21220;-82
2021/04/21 09:23:11;;;;;;;4.62;4.22;;;;;;;12.41;48.13;99892.69;1677547;83;21242;-82
2021/04/21 09:25:38;;;;;;;4.05;3.75;;;;;;;12.46;47.54;99892.84;1686670;82;21176;-81
2021/04/21 09:28:07;;;;;;;4.75;4.35;;;;;;;12.48;48.47;99896.66;1693776;82;22190;-84
2021/04/21 09:30:39;;;;;;;4.50;4.17;;;;;;;12.54;48.92;99899.81;1683562;82;21295;-85
2021/04/21 09:33:08;;;;;;;4.50;3.50;;;;;;;12.60;49.35;99893.63;1691906;82;21173;-83
2021/04/21 09:35:42;;;;;;;3.85;3.62;;;;;;;12.68;49.75;99891.73;1671236;84;21219;-83
2021/04/21 09:38:16;;;;;;;3.20;2.92;;;;;;;12.66;48.75;99879.41;1699974;82;21200;-83
2021/04/21 09:40:57;;;;;;;3.40;3.20;;;;;;;12.66;49.01;99887.95;1692699;82;21342;-83
2021/04/21 09:43:32;;;;;;;3.02;2.80;;;;;;;12.69;47.59;99896.06;1683066;84;21228;-85
2021/04/21 09:46:03;;;;;;;2.87;2.67;;;;;;;12.68;47.79;99895.24;1720360;81;21118;-84
2021/04/21 09:48:35;;;;;;;2.30;2.20;;;;;;;12.66;48.14;99894.11;1721257;81;21170;-84
2021/04/21 09:51:15;;;;;;;2.77;2.60;;;;;;;12.72;48.03;99893.78;1717050;81;21324;-84
2021/04/21 09:53:50;;;;;;;3.30;3.00;;;;;;;12.88;48.14;99898.33;1719991;81;21186;-83
2021/04/21 09:56:25;;;;;;;3.90;3.52;;;;;;;12.82;47.61;99866.56;1724778;81;21103;-85
2021/04/21 09:58:56;;;;;;;3.33;3.12;;;;;;;13.17;47.52;99894.25;1733024;81;21189;-81
2021/04/21 10:01:34;;;;;;;4.33;3.72;;;;;;;13.29;46.49;99897.05;1710324;83;21262;-83
2021/04/21 10:04:12;;;;;;;3.67;2.92;;;;;;;13.29;46.26;99897.05;1682823;83;21286;-81
2021/04/21 10:06:44;;;;;;;7.08;3.70;;;;;;;13.23;46.76;99894.19;1689480;83;21167;-83
2021/04/21 10:09:37;;;;;;;4.25;3.52;;;;;;;13.24;46.38;99897.68;1674232;84;21341;-84
2021/04/21 10:12:26;;;;;;;3.35;3.12;;;;;;;13.19;47.04;99896.20;1655210;84;21122;-85
2021/04/21 10:15:11;;;;;;;3.20;3.00;;;;;;;13.15;47.03;99891.79;1672770;84;21662;-84
2021/04/21 10:17:44;;;;;;;4.03;3.70;;;;;;;13.12;47.14;99894.88;1689627;83;21325;-83
2021/04/21 10:20:15;;;;;;;3.72;3.42;;;;;;;13.09;47.37;99888.65;1679794;83;21602;-85
2021/04/21 10:22:45;;;;;;;6.30;3.85;;;;;;;13.04;47.35;99891.14;1706228;81;21079;-83
2021/04/21 10:25:15;;;;;;;4.83;4.42;;;;;;;12.99;47.77;99882.41;1718200;81;21202;-83
2021/04/21 10:27:42;;;;;;;8.40;4.00;;;;;;;13.03;47.48;99879.63;1718648;81;21222;-84
2021/04/21 10:30:12;;;;;;;3.77;3.47;;;;;;;13.09;46.91;99884.63;1729173;81;21320;-83
2021/04/21 10:32:39;;;;;;;3.83;3.27;;;;;;;13.03;46.58;99872.94;1733681;77;21377;-82
2021/04/21 10:35:07;;;;;;;6.05;3.37;;;;;;;13.10;45.81;99885.45;1701169;81;21530;-82
2021/04/21 10:37:37;;;;;;;2.95;2.70;;;;;;;13.10;45.58;99880.91;1688743;82;21272;-84
2021/04/21 10:40:08;;;;;;;2.95;2.75;;;;;;;13.12;45.36;99887.38;1691253;82;21201;-76
2021/04/21 10:42:55;;;;;;;3.25;2.95;;;;;;;13.13;45.34;99883.16;1701722;82;21198;-91
2021/04/21 10:45:32;;;;;;;2.70;2.50;;;;;;;13.11;45.05;99884.39;1694894;82;21229;-90
2021/04/21 10:48:00;;;;;;;2.42;2.27;;;;;;;13.02;45.30;99882.52;1695954;82;21206;-88
2021/04/21 10:50:45;;;;;;;1.98;1.87;;;;;;;12.98;45.56;99883.45;1689855;82;21316;-89
2021/04/21 10:53:29;;;;;;;2.72;2.55;;;;;;;13.03;45.04;99888.99;1696531;82;21335;-93
2021/04/21 10:56:00;;;;;;;3.12;2.92;;;;;;;13.09;44.64;99882.45;1695423;82;21533;-89
2021/04/21 10:58:39;;;;;;;2.20;2.10;;;;;;;13.18;44.05;99883.83;1703100;82;21206;-92
2021/04/21 11:01:36;;;;;;;3.35;3.02;;;;;;;12.62;43.71;99787.79;1672368;82;21087;-93
2021/04/21 11:04:13;;;;;;;2.72;2.52;;;;;;;13.16;43.68;99880.56;1684846;82;21147;-93
2021/04/21 11:06:47;;;;;;;3.02;2.83;;;;;;;13.14;44.07;99887.98;1692683;84;21300;-94
2021/04/21 11:09:54;;;;;;;4.87;4.20;;;;;;;13.10;46.96;99892.14;1788144;79;23560;-92
2021/04/21 11:15:46;;;;;;;6.28;3.55;;;;;;;12.84;48.77;99895.25;1813857;77;22754;-93
2021/04/21 11:18:30;;;;;;;3.55;3.15;;;;;;;12.78;48.73;99903.62;1786935;78;21611;-92
2021/04/21 11:21:04;;;;;;;3.62;3.42;;;;;;;12.82;48.74;99902.67;1789321;79;21201;-92
2021/04/21 11:24:05;;;;;;;3.62;3.25;;;;;;;12.92;49.00;99896.36;1759296;79;21102;-93
2021/04/21 11:26:49;;;;;;;5.78;2.60;;;;;;;13.04;48.61;99892.48;1728785;81;21142;-93
2021/04/21 11:29:25;;;;;;;3.80;2.67;;;;;;;13.12;48.35;99895.41;1732378;81;21738;-92
2021/04/21 11:32:02;;;;;;;4.22;2.95;;;;;;;13.13;47.70;99901.05;1732236;81;21179;-93
2021/04/21 11:34:40;;;;;;;4.70;3.50;;;;;;;13.13;47.57;99902.39;1733093;81;21070;-91
2021/04/21 11:37:18;;;;;;;3.15;2.87;;;;;;;13.14;47.28;99897.35;1736462;80;21194;-91
2021/04/21 11:39:56;;;;;;;4.17;3.25;;;;;;;13.17;47.62;99904.43;1708081;82;21192;-92
2021/04/21 11:42:43;;;;;;;3.47;3.25;;;;;;;13.22;47.02;99901.94;1730232;81;21199;-91
2021/04/21 11:45:31;;;;;;;2.75;2.65;;;;;;;13.21;46.59;99896.80;1723702;81;21089;-91
2021/04/21 11:48:08;;;;;;;3.62;2.98;;;;;;;13.18;46.83;99895.88;1711665;82;21161;-86
2021/04/21 11:50:39;;;;;;;2.65;2.02;;;;;;;13.13;46.50;99895.20;1709147;82;21303;-90
2021/04/21 11:53:20;;;;;;;3.22;2.20;;;;;;;13.10;45.85;99897.48;1733339;81;21238;-93
2021/04/21 11:55:55;;;;;;;2.75;2.55;;;;;;;13.10;46.63;99896.14;1721583;80;21032;-90
2021/04/21 11:58:37;;;;;;;4.12;2.17;;;;;;;13.13;45.52;99892.53;1728400;81;21248;-90
2021/04/21 12:01:21;;;;;;;3.37;2.72;;;;;;;13.14;45.79;99890.66;1697759;82;21669;-91
2021/04/21 12:03:50;;;;;;;2.27;2.08;;;;;;;13.14;45.15;99889.33;1642719;85;21167;-91
2021/04/21 12:06:21;;;;;;;4.97;3.12;;;;;;;13.11;45.47;99891.08;1655439;85;21215;-90
2021/04/21 12:08:51;;;;;;;2.37;2.22;;;;;;;13.08;46.08;99879.49;1654706;85;21293;-86
2021/04/21 12:11:33;;;;;;;4.45;4.15;;;;;;;13.10;46.20;99880.09;1660691;85;21202;-86
2021/04/21 12:13:57;;;;;;;3.27;2.98;;;;;;;13.14;45.84;99869.25;1683845;84;21329;-85
2021/04/21 12:16:28;;;;;;;2.75;2.40;;;;;;;13.19;45.71;99874.78;1677962;85;21348;-86
2021/04/21 12:18:58;;;;;;;2.77;2.58;;;;;;;13.26;45.55;99874.22;1679277;84;21689;-88
2021/04/21 12:21:35;;;;;;;2.60;2.40;;;;;;;13.33;45.44;99877.67;1635307;87;21636;-87
2021/04/21 12:24:06;;;;;;;3.65;2.90;;;;;;;13.41;44.92;99870.73;1676536;84;21130;-87
2021/04/21 12:26:42;;;;;;;3.60;3.35;;;;;;;13.46;45.12;99866.58;1668481;85;21408;-86
2021/04/21 12:29:18;;;;;;;3.65;3.17;;;;;;;13.50;44.95;99867.25;1705909;84;21654;-86
2021/04/21 12:31:46;;;;;;;5.80;2.40;;;;;;;13.56;45.23;99866.39;1708787;82;21206;-85
2021/04/21 12:34:22;;;;;;;3.47;2.90;;;;;;;13.64;45.03;99862.62;1688737;82;21590;-86
2021/04/21 12:36:52;;;;;;;3.87;2.33;;;;;;;13.67;44.64;99863.50;1679170;84;21725;-86
2021/04/21 12:39:22;;;;;;;8.33;3.10;;;;;;;13.68;44.63;99868.35;1666738;85;21223;-93
2021/04/21 12:41:58;;;;;;;2.75;2.47;;;;;;;13.69;44.55;99871.31;1680369;84;21211;-85
2021/04/21 12:44:32;;;;;;;3.27;3.05;;;;;;;13.69;44.83;99868.11;1680106;83;21249;-86
2021/04/21 12:47:07;;;;;;;3.42;3.15;;;;;;;13.71;44.89;99874.59;1681817;84;21329;-84
2021/04/21 12:49:47;;;;;;;2.85;2.55;;;;;;;13.71;45.27;99871.91;1628431;86;21829;-85
2021/04/21 12:52:21;;;;;;;3.95;2.20;;;;;;;13.76;44.78;99874.75;1625943;87;21181;-86
2021/04/21 12:54:51;;;;;;;3.47;1.70;;;;;;;13.81;43.99;99873.05;1646202;85;21205;-87
2021/04/21 12:57:24;;;;;;;1.72;1.65;;;;;;;13.91;43.43;99878.42;1626132;84;21485;-85
2021/04/21 12:59:58;;;;;;;2.60;2.50;;;;;;;13.97;43.06;99875.66;1653458;87;21235;-86
2021/04/21 13:02:51;;;;;;;3.00;2.58;;;;;;;14.03;43.54;99871.28;1656997;85;21847;-86
2021/04/21 13:05:40;;;;;;;3.05;2.72;;;;;;;14.06;43.59;99882.91;1657415;85;21187;-86
2021/04/21 13:08:22;;;;;;;2.52;2.33;;;;;;;14.08;43.84;99875.98;1667907;85;21186;-86
2021/04/21 13:10:53;;;;;;;5.10;3.08;;;;;;;14.06;42.71;99887.45;1672505;84;21194;-85
2021/04/21 13:13:28;;;;;;;2.65;2.52;;;;;;;14.01;42.49;99878.23;1681571;82;21078;-84
2021/04/21 13:15:57;;;;;;;2.27;2.08;;;;;;;13.97;42.50;99874.33;1691055;82;21192;-87
2021/04/21 13:18:37;;;;;;;2.92;2.72;;;;;;;14.03;42.46;99877.98;1640606;86;21213;-87
2021/04/21 13:21:10;;;;;;;4.58;4.15;;;;;;;14.11;42.31;99875.02;1670049;84;21210;-85
2021/04/21 13:23:58;;;;;;;;;;;;;;;;;;;;;
2021/04/21 13:26:32;;;;;;;4.35;3.85;;;;;;;14.30;41.65;99872.35;1660411;84;21195;-87
2021/04/21 13:29:01;;;;;;;3.58;3.27;;;;;;;14.37;41.84;99873.06;1672951;84;21776;-87
2021/04/21 13:31:33;;;;;;;2.30;2.10;;;;;;;14.42;42.44;99870.54;1655824;85;21176;-87
2021/04/21 13:34:03;;;;;;;2.92;2.33;;;;;;;14.38;42.44;99866.67;1671245;84;21123;-87
2021/04/21 13:36:30;;;;;;;1.80;1.70;;;;;;;14.34;42.24;99860.13;1632258;85;21206;-86
2021/04/21 13:38:58;;;;;;;2.33;2.10;;;;;;;14.29;41.99;99870.70;1686931;84;21666;-88
2021/04/21 13:41:26;;;;;;;2.60;2.40;;;;;;;14.25;41.73;99865.50;1687628;84;22509;-85